This is the latest recevied weather packets stored in our database for station/object OE-11061. If no packets are shown the sender has not sent any weather packets the latest 10 day(s).
| Time | Temp. | Humidity | Pressure | Rain* | Wind** | Luminosity | Snow |
|---|---|---|---|---|---|---|---|
| 1788553522 | 21.11° C | 58% | 1014.4 hPa | 0 mm | - | 0 W/m² | - |
| 1788552322 | 22.22° C | 54% | 1014.3 hPa | 0 mm | - | 0 W/m² | - |
| 1788551724 | 22.78° C | 52% | 1014.1 hPa | 0 mm | - | 0 W/m² | - |
| 1788550895 | 22.78° C | 49% | 1013.9 hPa | 0 mm | - | 0 W/m² | - |
| 1788550522 | 23.33° C | 47% | 1013.9 hPa | 0 mm | - | 0 W/m² | - |
| 1788549922 | 23.33° C | 48% | 1013.7 hPa | 0 mm | - | 0 W/m² | - |
| 1788549095 | 23.33° C | 46% | 1013.6 hPa | 0 mm | - | 0 W/m² | - |
| 1788548722 | 23.33° C | 46% | 1013.4 hPa | 0 mm | - | 0 W/m² | - |
| 1788546922 | 24.44° C | 44% | 1012.9 hPa | 0 mm | - | 0 W/m² | - |
| 1788546322 | 25° C | 43% | 1012.6 hPa | 0 mm | - | 0 W/m² | - |
| 1788545494 | 25.56° C | 41% | 1012.5 hPa | 0 mm | - | 0 W/m² | - |
| 1788544522 | 26.11° C | 41% | 1012 hPa | 0 mm | - | 15 W/m² | - |
| 1788543322 | 26.67° C | 42% | 1011.9 hPa | 0 mm | - | 52 W/m² | - |
| 1788541895 | 27.78° C | 41% | 1011.6 hPa | 0 mm | - | 97 W/m² | - |
| 1788540922 | 28.89° C | 42% | 1011.5 hPa | 0 mm | - | 157 W/m² | - |
| 1788538296 | 30° C | 37% | 1011.6 hPa | 0 mm | - | 276 W/m² | - |
| 1788537922 | 30° C | 36% | 1011.7 hPa | 0 mm | - | 299 W/m² | - |
| 1788536122 | 30.56° C | 36% | 1012 hPa | 0 mm | - | 373 W/m² | - |
| 1788535522 | 30.56° C | 35% | 1012.1 hPa | 0 mm | - | 403 W/m² | - |
| 1788534695 | 30.56° C | 35% | 1012.2 hPa | 0 mm | - | 433 W/m² | - |
| 1788534322 | 30.56° C | 36% | 1012.1 hPa | 0 mm | - | 456 W/m² | - |
| 1788532522 | 30.56° C | 34% | 1012.5 hPa | 0 mm | - | 508 W/m² | - |
| 1788531922 | 31.11° C | 35% | 1012.7 hPa | 0 mm | - | 560 W/m² | - |
| 1788531095 | 31.11° C | 33% | 1012.8 hPa | 0 mm | - | 575 W/m² | - |
| 1788530722 | 31.11° C | 34% | 1012.9 hPa | 0 mm | - | 597 W/m² | - |
* Rain latest hour (hover to see other rain measurements)
** Current wind speed in m/s (hover to see current wind gust speed)